»·PEaware :: N41598 KSNA-KSNA

N41598 :: KSNA-KSNA

FLIGHT INFORMATION

Flight Status: Arrived
Operator: Privately registered:
United States
More flights under this callsign
Pilot: Alex C. (14758)
Aircraft: PIPER PA-34 SENECA
(PA34)
More flights by this aircraft type
Origin: KSNA John Wayne-Orange Co
United States
Destination: KSNA John Wayne-Orange Co
United States
More flights between these airports :: More routes between these airports
Route: +SLI
File this flight plan on PilotEdge
Remarks:
Altitude:
(Current/Filed)
3,000ft
Speed:
(Current/Filed)
240kts
Departed: 05-Jan-18 04:22 PM
Arrived: 05-Jan-18 04:56 PM
Distance/Time
Traveled:
0nm/0:34
Distance/Time
To Go:
Arrived

Flight Plot

Page will automatically refresh every two minutes.


Map Options




Map Legend


Flown Route
Filed Route
Departure Airport
Arrival Airport
Navaid (VOR, NDB)
Fix

Horizontal Profiles

Position Reports

Time Latitude Longitude Heading Altitude Ground
Speed
05-Jan-18 16:15 33.676217 -117.871054 219 58ft 0kts
05-Jan-18 16:16 33.676217 -117.871054 219 58ft 0kts
05-Jan-18 16:17 33.676217 -117.871054 219 58ft 0kts
05-Jan-18 16:18 33.676217 -117.871054 219 58ft 0kts
05-Jan-18 16:19 33.676217 -117.871054 219 58ft 0kts
05-Jan-18 16:20 33.676151 -117.871067 171 58ft 4kts
05-Jan-18 16:21 33.676294 -117.869957 29 58ft 14kts
05-Jan-18 16:22 33.677544 -117.869188 28 58ft 15kts
05-Jan-18 16:23 33.678845 -117.868379 23 58ft 14kts
05-Jan-18 16:24 33.680165 -117.867703 26 58ft 14kts
05-Jan-18 16:25 33.681282 -117.866605 95 58ft 7kts
05-Jan-18 16:26 33.681255 -117.866508 119 58ft 0kts
05-Jan-18 16:27 33.680635 -117.865721 198 58ft 17kts
05-Jan-18 16:28 33.671980 -117.871921 227 293ft 86kts
05-Jan-18 16:29 33.663986 -117.883408 231 977ft 82kts
05-Jan-18 16:30 33.654827 -117.896983 231 1687ft 85kts
05-Jan-18 16:31 33.649702 -117.912315 295 2383ft 88kts
05-Jan-18 16:32 33.657456 -117.918261 339 2815ft 93kts
05-Jan-18 16:33 33.669102 -117.922266 341 2981ft 120kts
05-Jan-18 16:34 33.682260 -117.926744 341 2978ft 139kts
05-Jan-18 16:35 33.708581 -117.935856 342 2972ft 157kts
05-Jan-18 16:36 33.735155 -117.927501 21 2969ft 161kts
05-Jan-18 16:37 33.758406 -117.915720 21 2968ft 156kts
05-Jan-18 16:38 33.774012 -117.907721 21 2968ft 153kts
05-Jan-18 16:39 33.790038 -117.899369 21 2967ft 152kts
05-Jan-18 16:40 33.806667 -117.890556 21 2966ft 150kts
05-Jan-18 16:41 33.823753 -117.879365 47 2963ft 151kts
05-Jan-18 16:42 33.836408 -117.859082 51 2961ft 143kts
05-Jan-18 16:43 33.847516 -117.840715 51 2961ft 139kts
05-Jan-18 16:44 33.858468 -117.822391 51 2962ft 139kts
05-Jan-18 16:45 33.864872 -117.802199 104 2963ft 141kts
05-Jan-18 16:46 33.857544 -117.778338 113 2963ft 141kts
05-Jan-18 16:47 33.842612 -117.769273 190 2967ft 121kts
05-Jan-18 16:48 33.827626 -117.771589 193 2966ft 119kts
05-Jan-18 16:49 33.816565 -117.778514 213 2968ft 116kts
05-Jan-18 16:50 33.805181 -117.786313 211 2767ft 117kts
05-Jan-18 16:51 33.790665 -117.795801 210 2474ft 119kts
05-Jan-18 16:52 33.781351 -117.801763 210 2274ft 115kts
05-Jan-18 16:53 33.771736 -117.807885 209 2064ft 110kts
05-Jan-18 16:54 33.761436 -117.814431 209 1837ft 103kts
05-Jan-18 16:55 33.744763 -117.825015 209 1476ft 102kts
05-Jan-18 16:56 33.729992 -117.834393 209 1158ft 100kts
05-Jan-18 16:57 33.715080 -117.843847 209 828ft 87kts
05-Jan-18 16:58 33.707000 -117.848978 209 650ft 86kts
05-Jan-18 16:59 33.697729 -117.854818 209 444ft 86kts
05-Jan-18 17:00 33.686908 -117.861611 210 176ft 79kts
05-Jan-18 17:01 33.679564 -117.866328 210 59ft 69kts
05-Jan-18 17:02 33.675726 -117.869478 308 58ft 11kts
05-Jan-18 17:03 33.675953 -117.869894 287 58ft 0kts
05-Jan-18 17:04 33.675799 -117.870815 231 58ft 0kts
05-Jan-18 17:05 33.675799 -117.870815 231 58ft 0kts
05-Jan-18 17:06 33.675799 -117.870815 231 58ft 0kts

Navigation Log

Ident Type
1. KSNA Airport
2. SLI Navaid
3. KSNA Airport